Time;durP1;ratioP1;P1;durP2;ratioP2;P2;SDS_P1;SDS_P2;PMS_P1;PMS_P2;Temp;Humidity;BMP_temperature;BMP_pressure;BME280_temperature;BME280_humidity;BME280_pressure;Samples;Min_cycle;Max_cycle;Signal;HPM_P1;HPM_P2
2022/12/18 00:01:33;;;;;;;82.18;32.88;;;-0.40;99.90;;;;;;5016020;28;97449;-76
2022/12/18 00:04:03;;;;;;;96.15;42.13;;;-0.40;99.90;;;;;;5034707;28;92691;-76
2022/12/18 00:06:32;;;;;;;93.85;36.17;;;-0.50;99.90;;;;;;5015886;28;91694;-75
2022/12/18 00:09:01;;;;;;;81.18;30.67;;;-0.50;99.90;;;;;;5013710;28;93998;-75
2022/12/18 00:11:29;;;;;;;83.60;33.42;;;-0.50;99.90;;;;;;4997025;28;96281;-75
2022/12/18 00:13:58;;;;;;;78.13;29.75;;;-0.60;99.90;;;;;;5012833;28;94984;-75
2022/12/18 00:16:27;;;;;;;71.78;27.10;;;-0.60;99.90;;;;;;5014061;28;92509;-76
2022/12/18 00:18:56;;;;;;;64.30;25.52;;;-0.70;99.90;;;;;;5015132;28;93293;-75
2022/12/18 00:21:23;;;;;;;85.40;31.92;;;-0.70;99.90;;;;;;4997198;28;93115;-76
2022/12/18 00:23:50;;;;;;;86.75;36.10;;;-0.70;99.90;;;;;;5013618;28;92852;-75
2022/12/18 00:26:31;;;;;;;64.78;30.98;;;-0.70;99.90;;;;;;4997167;28;92492;-75
2022/12/18 00:29:03;;;;;;;78.80;30.77;;;-0.70;99.90;;;;;;5013462;28;93223;-76
2022/12/18 00:31:31;;;;;;;70.75;27.92;;;-0.70;99.90;;;;;;5013738;28;95714;-75
2022/12/18 00:34:03;;;;;;;79.25;31.65;;;-0.80;99.90;;;;;;5015144;28;92396;-76
2022/12/18 00:36:33;;;;;;;76.18;29.00;;;-0.80;99.90;;;;;;5015127;28;92406;-76
2022/12/18 00:39:03;;;;;;;80.35;28.55;;;-0.80;99.90;;;;;;5012361;28;95854;-75
2022/12/18 00:44:17;;;;;;;78.68;28.83;;;-0.80;99.90;;;;;;5013848;28;92585;-75
2022/12/18 00:46:45;;;;;;;78.03;28.00;;;-0.90;99.90;;;;;;5014847;28;92389;-76
2022/12/18 00:49:13;;;;;;;64.47;22.52;;;-0.90;99.90;;;;;;5013539;28;93226;-75
2022/12/18 00:51:40;;;;;;;79.10;28.65;;;-1.00;99.90;;;;;;5012875;28;101616;-76
2022/12/18 00:54:07;;;;;;;85.45;32.25;;;-1.10;99.90;;;;;;5014726;28;92339;-76
2022/12/18 00:56:39;;;;;;;91.88;31.42;;;-1.00;99.90;;;;;;5013846;28;91788;-76
2022/12/18 00:59:14;;;;;;;76.70;27.17;;;-1.00;99.90;;;;;;5013276;28;93623;-76
2022/12/18 01:01:41;;;;;;;81.95;30.80;;;-1.00;99.90;;;;;;4996733;28;93061;-76
2022/12/18 01:04:08;;;;;;;71.95;27.67;;;-1.10;99.90;;;;;;5012033;28;94813;-76
2022/12/18 01:06:36;;;;;;;77.13;30.08;;;-1.10;99.90;;;;;;4996802;28;92567;-76
2022/12/18 01:09:04;;;;;;;81.07;31.45;;;-1.20;99.90;;;;;;5013417;28;93364;-76
2022/12/18 01:11:43;;;;;;;80.72;29.77;;;-1.20;99.90;;;;;;5014548;28;93072;-76
2022/12/18 01:14:10;;;;;;;82.40;31.63;;;-1.20;99.90;;;;;;5018392;28;92339;-75
2022/12/18 01:16:37;;;;;;;79.47;29.58;;;-1.30;99.90;;;;;;5016497;28;92645;-77
2022/12/18 01:19:04;;;;;;;80.95;31.17;;;-1.40;99.90;;;;;;5016818;28;93055;-77
2022/12/18 01:21:31;;;;;;;84.03;30.83;;;-1.50;99.90;;;;;;5017032;28;93052;-75
2022/12/18 01:24:03;;;;;;;89.05;32.20;;;-1.50;99.90;;;;;;5000700;28;92492;-75
2022/12/18 01:26:30;;;;;;;81.45;30.45;;;-1.50;99.90;;;;;;5017820;28;92445;-76
2022/12/18 01:28:58;;;;;;;77.40;30.20;;;-1.50;99.90;;;;;;4998525;28;95683;-76
2022/12/18 01:31:30;;;;;;;66.93;27.20;;;-1.50;99.90;;;;;;4999766;28;97711;-76
2022/12/18 01:34:00;;;;;;;85.90;33.17;;;-1.60;99.90;;;;;;5018004;28;92866;-76
2022/12/18 01:36:29;;;;;;;84.88;32.92;;;-1.70;99.90;;;;;;5017804;28;92483;-76
2022/12/18 01:38:56;;;;;;;82.32;30.60;;;-1.70;99.90;;;;;;4999536;28;94513;-76
2022/12/18 01:42:01;;;;;;;84.18;30.25;;;-1.80;99.90;;;;;;5016363;28;92958;-76
2022/12/18 01:44:51;;;;;;;77.10;29.90;;;-1.80;99.90;;;;;;5016000;28;92481;-76
2022/12/18 01:47:21;;;;;;;89.50;31.93;;;-1.90;99.90;;;;;;5018153;28;91797;-76
2022/12/18 01:49:49;;;;;;;79.72;29.70;;;-2.10;99.90;;;;;;5016008;28;94267;-76
2022/12/18 01:52:18;;;;;;;78.57;29.38;;;-2.10;99.90;;;;;;4999555;28;95572;-76
2022/12/18 01:54:48;;;;;;;82.47;31.90;;;-2.20;99.90;;;;;;4998281;28;95057;-76
2022/12/18 01:57:18;;;;;;;89.80;30.30;;;-2.20;99.90;;;;;;5017638;28;92477;-75
2022/12/18 01:59:50;;;;;;;72.97;28.88;;;-2.30;99.90;;;;;;5015816;28;92610;-75
2022/12/18 02:02:18;;;;;;;84.00;29.48;;;-2.40;99.90;;;;;;5016152;28;93595;-75
2022/12/18 02:04:45;;;;;;;84.50;33.53;;;-2.40;99.90;;;;;;5017218;28;92484;-76
2022/12/18 02:07:22;;;;;;;84.60;29.55;;;-2.50;99.90;;;;;;5017535;28;92552;-76
2022/12/18 02:10:14;;;;;;;40.88;18.70;;;-2.50;99.90;;;;;;5015585;28;95816;-76
2022/12/18 02:13:20;;;;;;;82.47;33.42;;;-2.60;99.90;;;;;;4999471;28;95800;-76
2022/12/18 02:16:00;;;;;;;85.00;30.40;;;-2.60;99.90;;;;;;5015675;28;92422;-76
2022/12/18 02:18:37;;;;;;;92.85;33.70;;;-2.70;99.90;;;;;;5015484;28;92664;-76
2022/12/18 02:21:31;;;;;;;87.28;33.20;;;-2.80;99.90;;;;;;5014503;28;95691;-76
2022/12/18 02:24:42;;;;;;;91.95;33.38;;;-2.80;99.90;;;;;;5014443;28;98440;-75
2022/12/18 02:27:11;;;;;;;71.00;24.27;;;-2.90;99.90;;;;;;5016063;28;92385;-76
2022/12/18 02:29:50;;;;;;;88.50;32.70;;;-3.00;99.90;;;;;;5015340;28;92559;-76
2022/12/18 02:32:27;;;;;;;95.47;35.63;;;-2.90;99.90;;;;;;5015473;28;95658;-75
2022/12/18 02:34:56;;;;;;;108.00;36.13;;;-3.00;99.90;;;;;;4998559;28;95656;-75
2022/12/18 02:37:27;;;;;;;102.97;37.72;;;-3.00;99.90;;;;;;5015371;28;92976;-75
2022/12/18 02:39:56;;;;;;;97.55;35.17;;;-3.10;99.90;;;;;;5015439;28;91796;-75
2022/12/18 02:42:24;;;;;;;86.85;34.17;;;-3.10;99.90;;;;;;4998694;28;94112;-76
2022/12/18 02:44:55;;;;;;;93.85;32.70;;;-3.20;99.90;;;;;;4981856;28;95813;-75
2022/12/18 02:47:30;;;;;;;77.88;29.00;;;-3.20;99.90;;;;;;4997805;28;95392;-75
2022/12/18 02:50:26;;;;;;;84.47;29.77;;;-3.30;99.90;;;;;;5014956;28;92505;-76
2022/12/18 02:53:18;;;;;;;65.50;26.90;;;-3.30;99.90;;;;;;5015049;28;95701;-75
2022/12/18 02:56:13;;;;;;;58.80;22.38;;;-3.40;99.90;;;;;;5014827;28;95664;-75
2022/12/18 02:58:49;;;;;;;59.92;24.73;;;-3.40;99.90;;;;;;5015168;28;92532;-75
2022/12/18 03:01:42;;;;;;;63.15;27.55;;;-3.50;99.90;;;;;;5015049;28;92944;-75
2022/12/18 03:04:17;;;;;;;67.93;27.75;;;-3.50;99.90;;;;;;5014885;28;95729;-77
2022/12/18 03:06:49;;;;;;;56.97;23.92;;;-3.50;99.90;;;;;;5014957;28;95759;-76
2022/12/18 03:09:26;;;;;;;58.67;25.77;;;-3.60;99.90;;;;;;5015105;28;92945;-76
2022/12/18 03:14:47;;;;;;;43.28;21.02;;;-3.70;99.90;;;;;;5015106;28;95652;-75
2022/12/18 03:17:20;;;;;;;47.45;20.48;;;-3.70;99.90;;;;;;5014407;28;96554;-76
2022/12/18 03:19:48;;;;;;;58.17;23.42;;;-3.80;99.90;;;;;;5014681;28;92554;-75
2022/12/18 03:22:16;;;;;;;43.75;21.13;;;-3.80;99.90;;;;;;4982045;28;92936;-76
2022/12/18 03:24:48;;;;;;;57.60;24.02;;;-3.80;99.90;;;;;;5014544;28;95030;-76
2022/12/18 03:27:19;;;;;;;50.80;20.50;;;-3.80;99.90;;;;;;5014420;28;95466;-76
2022/12/18 03:29:56;;;;;;;48.20;22.50;;;-3.80;99.90;;;;;;4998053;28;92868;-76
2022/12/18 03:32:32;;;;;;;57.05;24.17;;;-3.80;99.90;;;;;;5015174;28;91875;-76
2022/12/18 03:35:04;;;;;;;61.27;26.67;;;-3.90;99.90;;;;;;5014152;28;95592;-76
2022/12/18 03:37:35;;;;;;;60.03;23.80;;;-3.90;99.90;;;;;;4998341;28;95241;-75
2022/12/18 03:40:03;;;;;;;58.35;23.25;;;-3.90;99.90;;;;;;5013041;28;95274;-76
2022/12/18 03:42:38;;;;;;;61.70;22.75;;;-3.90;99.90;;;;;;5014521;28;93268;-76
2022/12/18 03:45:17;;;;;;;51.15;22.23;;;-3.90;99.90;;;;;;5014081;28;95707;-76
2022/12/18 03:48:10;;;;;;;44.40;20.50;;;-4.00;99.90;;;;;;5015688;28;92344;-75
2022/12/18 03:51:05;;;;;;;56.08;24.50;;;-4.00;99.90;;;;;;5014585;28;92880;-75
2022/12/18 03:53:34;;;;;;;48.03;21.00;;;-4.00;99.90;;;;;;4997815;28;92487;-75
2022/12/18 03:56:04;;;;;;;53.95;24.35;;;-4.00;99.90;;;;;;4997488;28;95685;-76
2022/12/18 03:58:38;;;;;;;59.88;23.63;;;-4.00;99.90;;;;;;5014541;28;95363;-76
2022/12/18 04:01:23;;;;;;;55.53;23.52;;;-4.00;99.90;;;;;;5014330;28;92648;-75
2022/12/18 04:03:51;;;;;;;52.47;22.40;;;-4.10;99.90;;;;;;4997645;28;93038;-75
2022/12/18 04:06:19;;;;;;;50.75;21.33;;;-4.10;99.90;;;;;;4979626;28;98256;-75
2022/12/18 04:08:47;;;;;;;50.33;22.67;;;-4.10;99.90;;;;;;5013810;28;98708;-75
2022/12/18 04:11:17;;;;;;;54.80;21.95;;;-4.10;99.90;;;;;;5013654;28;92435;-75
2022/12/18 04:13:46;;;;;;;47.97;20.27;;;-4.10;99.90;;;;;;5014076;28;93038;-75
2022/12/18 04:16:19;;;;;;;41.85;18.35;;;-4.10;99.90;;;;;;4997831;28;95959;-76
2022/12/18 04:18:50;;;;;;;52.72;22.05;;;-4.10;99.90;;;;;;4997611;28;95470;-76
2022/12/18 04:21:19;;;;;;;51.70;21.58;;;-4.10;99.90;;;;;;5014989;28;92467;-76
2022/12/18 04:23:48;;;;;;;56.55;24.15;;;-4.20;99.90;;;;;;4997724;28;91829;-76
2022/12/18 04:26:16;;;;;;;54.40;23.73;;;-4.10;99.90;;;;;;4997180;28;94396;-76
2022/12/18 04:28:53;;;;;;;47.63;21.33;;;-4.10;99.90;;;;;;4998130;28;95334;-76
2022/12/18 04:31:20;;;;;;;49.03;21.88;;;-4.20;99.90;;;;;;4995757;28;95382;-76
2022/12/18 04:33:47;;;;;;;52.17;22.67;;;-4.20;99.90;;;;;;5013681;28;92653;-76
2022/12/18 04:36:14;;;;;;;48.15;21.70;;;-4.20;99.90;;;;;;4996634;28;96269;-76
2022/12/18 04:38:43;;;;;;;42.22;20.17;;;-4.20;99.90;;;;;;4997226;28;95488;-76
2022/12/18 04:41:14;;;;;;;42.55;19.33;;;-4.20;99.90;;;;;;4997307;28;92527;-76
2022/12/18 04:43:45;;;;;;;43.40;18.65;;;-4.20;99.90;;;;;;5013472;28;93287;-76
2022/12/18 04:46:13;;;;;;;43.13;20.30;;;-4.20;99.90;;;;;;5012969;28;93385;-76
2022/12/18 04:48:40;;;;;;;50.25;22.05;;;-4.30;99.90;;;;;;4997169;28;98782;-76
2022/12/18 04:51:07;;;;;;;39.38;19.60;;;-4.30;99.90;;;;;;5014600;28;92498;-76
2022/12/18 04:53:34;;;;;;;50.38;20.55;;;-4.30;99.90;;;;;;5013695;28;92533;-76
2022/12/18 04:56:10;;;;;;;47.33;20.30;;;-4.30;99.90;;;;;;5012366;28;95686;-76
2022/12/18 04:58:39;;;;;;;39.25;17.50;;;-4.30;99.90;;;;;;5014400;28;95874;-76
2022/12/18 05:01:07;;;;;;;38.17;19.88;;;-4.30;99.90;;;;;;5014456;28;93012;-76
2022/12/18 05:03:35;;;;;;;47.15;21.25;;;-4.40;99.90;;;;;;5014719;28;92449;-76
2022/12/18 05:06:02;;;;;;;50.30;22.00;;;-4.40;99.90;;;;;;5013293;28;93266;-76
2022/12/18 05:08:29;;;;;;;42.70;19.33;;;-4.40;99.90;;;;;;5013527;28;93203;-76
2022/12/18 05:11:04;;;;;;;47.42;22.13;;;-4.40;99.90;;;;;;5013212;28;93318;-76
2022/12/18 05:13:32;;;;;;;43.70;19.80;;;-4.40;99.90;;;;;;5013937;28;92042;-76
2022/12/18 05:15:59;;;;;;;43.50;19.52;;;-4.40;99.90;;;;;;5013075;28;94995;-76
2022/12/18 05:18:26;;;;;;;41.08;18.20;;;-4.50;99.90;;;;;;5013020;28;93009;-76
2022/12/18 05:20:54;;;;;;;44.13;20.85;;;-4.50;99.90;;;;;;5013188;28;94836;-76
2022/12/18 05:23:23;;;;;;;41.97;20.23;;;-4.50;99.90;;;;;;4996417;28;92532;-76
2022/12/18 05:25:58;;;;;;;41.58;18.77;;;-4.60;99.90;;;;;;5014366;28;93292;-76
2022/12/18 05:28:27;;;;;;;39.17;17.60;;;-4.50;99.90;;;;;;5012098;28;95516;-76
2022/12/18 05:30:59;;;;;;;38.35;17.83;;;-4.50;99.90;;;;;;5013115;28;92465;-76
2022/12/18 05:33:29;;;;;;;40.40;18.33;;;-4.50;99.90;;;;;;5014446;28;92580;-76
2022/12/18 05:36:01;;;;;;;46.45;19.92;;;-4.50;99.90;;;;;;5014398;28;93299;-76
2022/12/18 05:38:31;;;;;;;39.17;19.58;;;-4.60;99.90;;;;;;5013110;28;95570;-76
2022/12/18 05:40:58;;;;;;;37.92;17.45;;;-4.50;99.90;;;;;;5014023;28;92489;-76
2022/12/18 05:43:26;;;;;;;41.03;19.90;;;-4.50;99.90;;;;;;5012993;28;92804;-76
2022/12/18 05:45:54;;;;;;;41.35;19.15;;;-4.60;99.90;;;;;;4994823;28;98378;-76
2022/12/18 05:48:21;;;;;;;40.70;18.48;;;-4.60;99.90;;;;;;5013980;28;95597;-76
2022/12/18 05:50:49;;;;;;;39.40;17.80;;;-4.60;99.90;;;;;;5012820;28;92500;-76
2022/12/18 05:53:19;;;;;;;32.08;14.88;;;-4.60;99.90;;;;;;5012397;28;92451;-76
2022/12/18 05:55:46;;;;;;;32.78;16.00;;;-4.60;99.90;;;;;;5012628;28;94390;-76
2022/12/18 05:58:14;;;;;;;43.50;21.23;;;-4.70;99.90;;;;;;4996468;28;95593;-76
2022/12/18 06:00:44;;;;;;;38.30;19.15;;;-4.70;99.90;;;;;;5017415;28;92424;-76
2022/12/18 06:03:13;;;;;;;38.50;19.30;;;-4.70;99.90;;;;;;5016241;28;92255;-76
2022/12/18 06:05:43;;;;;;;37.45;18.00;;;-4.70;99.90;;;;;;5017287;28;93623;-76
2022/12/18 06:08:11;;;;;;;35.85;18.45;;;-4.70;99.90;;;;;;5016867;28;92560;-77
2022/12/18 06:10:39;;;;;;;38.13;19.65;;;-4.70;99.90;;;;;;5014787;28;94827;-75
2022/12/18 06:13:06;;;;;;;36.60;20.08;;;-4.70;99.90;;;;;;5015965;28;92539;-75
2022/12/18 06:15:37;;;;;;;40.22;18.77;;;-4.70;99.90;;;;;;5016929;28;93191;-75
2022/12/18 06:18:04;;;;;;;37.72;19.83;;;-4.70;99.90;;;;;;5015674;28;95668;-75
2022/12/18 06:20:31;;;;;;;40.67;20.67;;;-4.70;99.90;;;;;;5016794;28;92412;-75
2022/12/18 06:22:59;;;;;;;40.70;20.35;;;-4.80;99.90;;;;;;5017086;28;92521;-75
2022/12/18 06:25:26;;;;;;;33.47;16.45;;;-4.80;99.90;;;;;;5015403;28;93659;-75
2022/12/18 06:27:53;;;;;;;44.40;19.42;;;-4.80;99.90;;;;;;4999394;28;94537;-75
2022/12/18 06:30:20;;;;;;;37.75;18.75;;;-4.80;99.90;;;;;;4998493;28;92492;-76
2022/12/18 06:32:50;;;;;;;35.15;17.90;;;-4.80;99.90;;;;;;5015681;28;92523;-75
2022/12/18 06:35:22;;;;;;;38.42;19.80;;;-4.80;99.90;;;;;;5014123;28;95561;-75
2022/12/18 06:37:49;;;;;;;37.28;18.33;;;-4.80;99.90;;;;;;5016750;28;95452;-75
2022/12/18 06:40:16;;;;;;;33.22;17.00;;;-4.80;99.90;;;;;;5016510;28;92533;-75
2022/12/18 06:42:43;;;;;;;33.35;17.52;;;-4.90;99.90;;;;;;5016730;28;92467;-75
2022/12/18 06:45:11;;;;;;;34.30;18.58;;;-4.90;99.90;;;;;;4998735;28;101091;-75
2022/12/18 06:47:38;;;;;;;31.92;18.13;;;-4.90;99.90;;;;;;4998106;28;96474;-75
2022/12/18 06:50:05;;;;;;;36.10;17.42;;;-4.90;99.90;;;;;;5015660;28;92517;-75
2022/12/18 06:52:33;;;;;;;36.42;16.70;;;-4.90;99.90;;;;;;5016998;28;92247;-75
2022/12/18 06:55:00;;;;;;;37.33;16.95;;;-4.90;99.90;;;;;;5015384;28;93103;-75
2022/12/18 06:57:27;;;;;;;31.52;16.58;;;-4.90;99.90;;;;;;5015002;28;92989;-75
2022/12/18 06:59:54;;;;;;;27.50;14.73;;;-4.90;99.90;;;;;;4997721;28;95489;-74
2022/12/18 07:02:21;;;;;;;35.08;17.25;;;-4.90;99.90;;;;;;4998223;28;92599;-75
2022/12/18 07:04:51;;;;;;;32.45;17.38;;;-4.90;99.90;;;;;;4981712;28;94271;-75
2022/12/18 07:07:19;;;;;;;31.02;16.63;;;-4.90;99.90;;;;;;5016065;28;94008;-74
2022/12/18 07:09:46;;;;;;;24.63;15.20;;;-4.90;99.90;;;;;;5014584;28;92533;-75
2022/12/18 07:12:13;;;;;;;30.55;16.73;;;-4.90;99.90;;;;;;5015142;28;92976;-75
2022/12/18 07:14:40;;;;;;;31.80;16.50;;;-4.90;99.90;;;;;;4998204;28;93237;-75
2022/12/18 07:17:07;;;;;;;34.15;17.90;;;-4.90;99.90;;;;;;5015266;28;93029;-75
2022/12/18 07:19:34;;;;;;;32.75;17.70;;;-4.90;99.90;;;;;;4998452;28;92866;-75
2022/12/18 07:22:02;;;;;;;23.52;12.88;;;-4.90;99.90;;;;;;5016294;28;92878;-75
2022/12/18 07:24:28;;;;;;;29.80;14.90;;;-4.90;99.90;;;;;;5013480;28;94793;-75
2022/12/18 07:26:55;;;;;;;29.63;15.38;;;-4.90;99.90;;;;;;5016023;28;95516;-75
2022/12/18 07:29:23;;;;;;;30.67;16.02;;;-4.90;99.90;;;;;;5015677;28;92640;-75
2022/12/18 07:31:49;;;;;;;21.90;13.30;;;-4.80;99.90;;;;;;5015132;28;92525;-75
2022/12/18 07:34:17;;;;;;;19.05;11.80;;;-4.90;99.90;;;;;;5014793;28;93240;-75
2022/12/18 07:36:44;;;;;;;26.45;14.20;;;-4.90;99.90;;;;;;5014433;28;92436;-75
2022/12/18 07:39:11;;;;;;;19.77;12.10;;;-4.80;99.90;;;;;;4997882;28;97150;-75
2022/12/18 07:41:42;;;;;;;24.25;13.32;;;-4.80;99.90;;;;;;5016028;28;91731;-75
2022/12/18 07:44:13;;;;;;;20.40;12.30;;;-4.80;99.90;;;;;;4998190;28;96046;-74
2022/12/18 07:46:39;;;;;;;18.83;12.30;;;-4.70;99.90;;;;;;5014434;28;93083;-74
2022/12/18 07:49:07;;;;;;;22.10;12.40;;;-4.70;99.90;;;;;;4996872;28;94903;-74
2022/12/18 07:51:33;;;;;;;18.35;9.15;;;-4.60;99.90;;;;;;5014356;28;92361;-74
2022/12/18 07:54:01;;;;;;;23.45;13.40;;;-4.60;99.90;;;;;;5015051;28;93361;-74
2022/12/18 07:56:28;;;;;;;18.63;11.00;;;-4.50;99.90;;;;;;5013768;28;95820;-75
2022/12/18 07:58:57;;;;;;;18.48;9.68;;;-4.50;99.90;;;;;;5014426;28;92530;-75
2022/12/18 08:01:25;;;;;;;22.20;12.20;;;-4.40;99.90;;;;;;5014935;28;92391;-75
2022/12/18 08:03:52;;;;;;;21.00;13.00;;;-4.30;99.90;;;;;;5014274;28;93423;-75
2022/12/18 08:06:19;;;;;;;26.73;12.45;;;-4.30;99.90;;;;;;5014670;28;93069;-74
2022/12/18 08:08:47;;;;;;;21.90;12.40;;;-4.20;99.90;;;;;;5013813;28;92620;-75
2022/12/18 08:11:14;;;;;;;19.67;12.55;;;-4.20;99.90;;;;;;5014412;28;92446;-75
2022/12/18 08:13:41;;;;;;;69.60;36.22;;;-4.10;99.90;;;;;;5013839;28;95676;-75
2022/12/18 08:16:08;;;;;;;30.50;20.20;;;-4.00;99.90;;;;;;4997446;28;95461;-75
2022/12/18 08:18:37;;;;;;;20.98;13.43;;;-3.90;99.90;;;;;;5013722;28;92550;-75
2022/12/18 08:21:22;;;;;;;58.80;49.63;;;-3.90;99.90;;;;;;5014247;28;92439;-74
2022/12/18 08:23:50;;;;;;;30.70;24.45;;;-3.80;99.90;;;;;;5015048;28;93174;-75
2022/12/18 08:26:18;;;;;;;22.67;15.38;;;-3.70;99.90;;;;;;5013634;28;96167;-76
2022/12/18 08:28:45;;;;;;;30.40;21.55;;;-3.70;99.90;;;;;;5014545;28;92416;-76
2022/12/18 08:31:12;;;;;;;24.55;14.50;;;-3.60;99.90;;;;;;5014563;28;91707;-76
2022/12/18 08:33:40;;;;;;;15.73;12.25;;;-3.60;99.90;;;;;;5013415;28;95838;-75
2022/12/18 08:36:09;;;;;;;19.77;12.23;;;-3.50;99.90;;;;;;5014875;28;93199;-76
2022/12/18 08:38:36;;;;;;;20.40;12.93;;;-3.40;99.90;;;;;;5012243;28;95054;-76
2022/12/18 08:41:06;;;;;;;17.45;10.02;;;-3.40;99.90;;;;;;5013773;28;92561;-76
2022/12/18 08:46:19;;;;;;;18.45;11.43;;;-3.30;99.90;;;;;;5015105;28;93018;-76
2022/12/18 08:48:47;;;;;;;16.10;8.88;;;-3.20;99.90;;;;;;5013398;28;92474;-76
2022/12/18 08:51:16;;;;;;;14.77;8.93;;;-3.10;99.90;;;;;;5015468;28;92332;-76
2022/12/18 08:53:44;;;;;;;16.15;10.23;;;-3.00;99.90;;;;;;5013877;28;93399;-76
2022/12/18 08:56:12;;;;;;;17.35;9.23;;;-3.00;99.90;;;;;;5013777;28;95827;-76
2022/12/18 08:58:40;;;;;;;16.77;10.68;;;-2.90;99.90;;;;;;5015125;28;92335;-76
2022/12/18 09:01:09;;;;;;;15.10;9.55;;;-2.90;99.90;;;;;;5014676;28;92443;-76
2022/12/18 09:03:36;;;;;;;19.85;10.63;;;-2.80;99.90;;;;;;5013647;28;95685;-76
2022/12/18 09:06:04;;;;;;;15.60;10.57;;;-2.70;99.90;;;;;;5013364;28;96127;-76
2022/12/18 09:08:31;;;;;;;21.48;13.23;;;-2.60;99.90;;;;;;5013444;28;92547;-76
2022/12/18 09:10:58;;;;;;;13.32;9.63;;;-2.60;99.90;;;;;;5013129;28;92672;-76
2022/12/18 09:13:26;;;;;;;15.63;10.13;;;-2.50;99.90;;;;;;4996685;28;107024;-76
2022/12/18 09:15:55;;;;;;;14.82;9.32;;;-2.40;99.90;;;;;;5013029;28;92969;-76
2022/12/18 09:18:23;;;;;;;13.25;9.02;;;-2.40;99.90;;;;;;5013528;28;92589;-76
2022/12/18 09:20:52;;;;;;;15.10;9.70;;;-2.30;99.90;;;;;;5015192;28;92187;-76
2022/12/18 09:23:20;;;;;;;10.75;7.55;;;-2.20;99.90;;;;;;5013817;28;93818;-76
2022/12/18 09:25:47;;;;;;;11.73;7.75;;;-2.10;99.90;;;;;;4996811;28;95403;-76
2022/12/18 09:28:21;;;;;;;12.98;8.43;;;-2.10;99.90;;;;;;5012487;28;94874;-76
2022/12/18 09:30:49;;;;;;;12.18;8.98;;;-1.90;99.90;;;;;;4996858;28;92567;-76
2022/12/18 09:33:17;;;;;;;10.98;7.25;;;-1.90;99.90;;;;;;5015811;28;93252;-76
2022/12/18 09:35:45;;;;;;;12.52;10.73;;;-1.70;99.90;;;;;;5000448;28;93028;-76
2022/12/18 09:38:15;;;;;;;14.30;10.02;;;-1.60;99.90;;;;;;5016617;28;92456;-76
2022/12/18 09:40:47;;;;;;;12.90;9.30;;;-1.50;99.90;;;;;;4999501;28;92511;-76
2022/12/18 09:43:29;;;;;;;13.23;9.68;;;-1.40;99.90;;;;;;5018547;28;93245;-76
2022/12/18 09:46:02;;;;;;;14.25;9.75;;;-1.30;99.90;;;;;;5017224;28;93147;-76
2022/12/18 09:48:38;;;;;;;;;;;-1.20;99.90;;;;;;5017732;28;92430;-76
2022/12/18 09:51:28;;;;;;;16.95;9.93;;;-1.20;99.90;;;;;;5019431;28;92406;-76
2022/12/18 09:54:05;;;;;;;13.95;9.90;;;-1.10;99.90;;;;;;5016714;28;95692;-76
2022/12/18 09:56:38;;;;;;;18.30;11.68;;;-1.00;99.90;;;;;;5016620;28;95411;-77
2022/12/18 09:59:06;;;;;;;13.03;9.87;;;-1.00;99.90;;;;;;5017681;28;92982;-77
2022/12/18 10:01:33;;;;;;;14.35;8.65;;;-0.90;99.90;;;;;;5016449;28;92505;-76
2022/12/18 10:04:09;;;;;;;23.08;19.33;;;-0.80;99.90;;;;;;5017036;28;93046;-76
2022/12/18 10:07:08;;;;;;;13.00;10.68;;;-0.70;99.90;;;;;;5017166;28;99342;-77
2022/12/18 10:09:44;;;;;;;12.05;7.22;;;-0.70;99.90;;;;;;5017545;28;92445;-76
2022/12/18 10:12:30;;;;;;;13.25;8.25;;;-0.70;99.90;;;;;;5018116;28;91722;-77
2022/12/18 10:15:39;;;;;;;10.95;7.00;;;-0.80;99.90;;;;;;5016055;28;96228;-77
2022/12/18 10:18:23;;;;;;;13.63;7.40;;;-0.80;99.90;;;;;;4978579;28;94007;-76
2022/12/18 10:20:54;;;;;;;11.60;7.53;;;-0.90;99.90;;;;;;5015179;28;94790;-76
2022/12/18 10:23:26;;;;;;;13.32;8.98;;;-0.90;99.90;;;;;;5017875;28;92429;-76
2022/12/18 10:26:03;;;;;;;10.60;7.75;;;-0.90;99.90;;;;;;5016195;28;93373;-76
2022/12/18 10:28:32;;;;;;;10.05;7.88;;;-0.90;99.90;;;;;;5016444;28;93352;-76
2022/12/18 10:30:59;;;;;;;13.43;9.25;;;-0.90;99.90;;;;;;5016030;28;92409;-76
2022/12/18 10:33:32;;;;;;;11.07;8.68;;;-0.80;99.90;;;;;;5017359;28;94356;-75
2022/12/18 10:36:00;;;;;;;11.95;8.93;;;-0.80;99.90;;;;;;5015757;28;93264;-76
2022/12/18 10:38:31;;;;;;;11.20;7.25;;;-0.70;99.90;;;;;;4999907;28;96095;-75
2022/12/18 10:41:02;;;;;;;8.35;5.82;;;-0.70;99.90;;;;;;5002320;28;92956;-77
2022/12/18 10:43:33;;;;;;;11.07;6.65;;;-0.60;99.90;;;;;;4996870;28;92495;-75
2022/12/18 10:46:10;;;;;;;9.95;7.60;;;-0.60;99.90;;;;;;4994291;28;98363;-75
2022/12/18 10:48:42;;;;;;;10.15;7.63;;;-0.60;99.90;;;;;;4997222;28;95300;-75
2022/12/18 10:51:09;;;;;;;11.02;7.53;;;-0.60;99.90;;;;;;4996016;28;92453;-76
2022/12/18 10:53:41;;;;;;;9.93;7.88;;;-0.60;99.90;;;;;;4995970;28;92954;-75
2022/12/18 10:56:08;;;;;;;10.60;6.70;;;-0.60;99.90;;;;;;4995705;28;94055;-75
2022/12/18 10:58:38;;;;;;;10.38;6.40;;;-0.60;99.90;;;;;;4995957;28;92890;-76
2022/12/18 11:01:12;;;;;;;12.88;9.57;;;-0.60;99.90;;;;;;5012218;28;93155;-75
2022/12/18 11:03:43;;;;;;;;;;;-0.50;99.90;;;;;;4998076;28;91702;-75
2022/12/18 11:06:16;;;;;;;11.70;7.60;;;-0.50;99.90;;;;;;4996288;28;95674;-75
2022/12/18 11:08:56;;;;;;;9.45;5.88;;;-0.50;99.90;;;;;;4996822;28;92836;-76
2022/12/18 11:11:24;;;;;;;18.08;15.60;;;-0.40;99.90;;;;;;4994983;28;95532;-75
2022/12/18 11:14:21;;;;;;;20.85;18.08;;;-0.40;99.90;;;;;;4996417;28;92517;-76
2022/12/18 11:16:49;;;;;;;10.05;8.43;;;-0.30;99.90;;;;;;4994740;28;93359;-76
2022/12/18 11:19:39;;;;;;;19.52;17.50;;;-0.20;99.90;;;;;;4995879;28;92956;-76
2022/12/18 11:22:23;;;;;;;7.20;5.93;;;-0.10;99.90;;;;;;4994471;28;93289;-76
2022/12/18 11:25:11;;;;;;;8.45;5.85;;;-0.10;99.90;;;;;;4978871;28;92562;-76
2022/12/18 11:28:04;;;;;;;9.82;6.97;;;0.00;99.90;;;;;;4996170;28;93174;-76
2022/12/18 11:30:36;;;;;;;7.93;5.00;;;0.10;99.90;;;;;;4996297;28;93346;-76
2022/12/18 11:33:06;;;;;;;11.05;7.47;;;0.20;99.90;;;;;;4996746;28;92363;-75
2022/12/18 11:35:50;;;;;;;7.07;5.25;;;0.20;99.90;;;;;;4996344;28;92454;-77
2022/12/18 11:38:20;;;;;;;;;;;0.30;99.90;;;;;;4995477;28;95736;-75
2022/12/18 11:40:58;;;;;;;8.90;7.05;;;0.30;99.90;;;;;;4996087;28;97558;-75
2022/12/18 11:43:28;;;;;;;7.85;5.55;;;0.30;99.90;;;;;;4995492;28;92514;-75
2022/12/18 11:46:05;;;;;;;8.05;5.72;;;0.40;99.90;;;;;;4996080;28;92362;-75
2022/12/18 11:48:48;;;;;;;8.35;5.10;;;0.40;99.90;;;;;;4996386;28;93346;-75
2022/12/18 11:51:28;;;;;;;6.75;4.10;;;0.60;99.90;;;;;;4994657;28;95460;-75
2022/12/18 11:53:55;;;;;;;8.98;5.50;;;0.60;99.90;;;;;;4995030;28;92489;-76
2022/12/18 11:56:36;;;;;;;6.95;5.45;;;0.60;99.90;;;;;;4996144;28;92672;-75
2022/12/18 11:59:30;;;;;;;6.25;4.85;;;0.60;99.90;;;;;;4996210;28;93209;-76
2022/12/18 12:02:21;;;;;;;28.53;23.63;;;0.60;99.90;;;;;;4996245;28;93060;-76
2022/12/18 12:05:12;;;;;;;9.65;5.63;;;0.60;99.90;;;;;;4993356;28;94894;-76
2022/12/18 12:08:31;;;;;;;7.22;6.53;;;0.70;99.90;;;;;;4996271;28;92497;-76
2022/12/18 12:11:22;;;;;;;10.32;5.55;;;0.70;99.90;;;;;;4953861;28;93495;-76
2022/12/18 12:14:31;;;;;;;10.30;5.65;;;0.70;99.90;;;;;;4994596;28;93292;-76
2022/12/18 12:17:18;;;;;;;17.52;14.50;;;0.80;99.90;;;;;;4976493;28;92597;-76
2022/12/18 12:19:50;;;;;;;10.25;5.20;;;0.70;99.90;;;;;;4995725;28;92397;-76
2022/12/18 12:22:36;;;;;;;11.60;8.52;;;0.80;99.90;;;;;;4993725;28;95797;-76
2022/12/18 12:25:21;;;;;;;7.53;5.45;;;0.80;99.90;;;;;;4978083;28;95575;-76
2022/12/18 12:27:58;;;;;;;7.60;6.60;;;0.80;99.90;;;;;;4994559;28;92607;-76
2022/12/18 12:31:03;;;;;;;7.78;5.38;;;0.90;99.90;;;;;;4995425;28;92457;-76
2022/12/18 12:33:49;;;;;;;8.48;6.35;;;1.00;99.90;;;;;;4994316;28;95633;-76
2022/12/18 12:36:43;;;;;;;8.20;6.07;;;1.00;99.90;;;;;;4977470;28;98163;-77
2022/12/18 12:39:13;;;;;;;;;;;1.00;99.90;;;;;;4996328;28;92884;-77
2022/12/18 12:44:32;;;;;;;9.57;8.68;;;0.90;99.90;;;;;;4995314;28;93340;-75
2022/12/18 12:47:14;;;;;;;7.25;5.38;;;1.00;99.90;;;;;;4994466;28;92868;-76
2022/12/18 12:49:47;;;;;;;7.10;5.13;;;1.00;99.90;;;;;;4995690;28;92419;-76
2022/12/18 12:52:29;;;;;;;8.05;6.30;;;1.00;99.90;;;;;;4977942;28;91695;-76
2022/12/18 12:54:57;;;;;;;11.25;7.93;;;1.00;99.90;;;;;;5010515;28;95902;-76
2022/12/18 12:58:03;;;;;;;9.52;7.05;;;1.00;99.90;;;;;;4993667;28;95936;-76
2022/12/18 13:00:39;;;;;;;9.20;6.72;;;1.10;99.90;;;;;;4973151;28;94894;-76
2022/12/18 13:03:18;;;;;;;12.05;9.30;;;1.10;99.90;;;;;;4994945;28;92377;-75
2022/12/18 13:05:50;;;;;;;8.57;6.47;;;1.00;99.90;;;;;;4995354;28;93350;-76
2022/12/18 13:08:29;;;;;;;9.90;6.65;;;1.10;99.90;;;;;;4996226;28;93086;-76
2022/12/18 13:13:56;;;;;;;7.85;7.05;;;1.00;99.90;;;;;;5013993;28;92865;-76
2022/12/18 13:16:25;;;;;;;14.82;10.50;;;1.10;99.90;;;;;;4998724;28;93180;-76